Time;durP1;ratioP1;P1;durP2;ratioP2;P2;SDS_P1;SDS_P2;PMS_P1;PMS_P2;Temp;Humidity;BMP_temperature;BMP_pressure;BME280_temperature;BME280_humidity;BME280_pressure;Samples;Min_cycle;Max_cycle;Signal;HPM_P1;HPM_P2
2023/01/31 00:00:54;;;;;;;51.40;35.95;;;5.00;99.90;;;;;;5033234;28;20382;-63
2023/01/31 00:03:20;;;;;;;53.17;35.28;;;5.00;99.90;;;;;;5033215;28;20079;-63
2023/01/31 00:05:45;;;;;;;46.65;34.55;;;5.00;99.90;;;;;;5033032;28;20040;-62
2023/01/31 00:08:13;;;;;;;52.08;34.35;;;4.80;99.90;;;;;;5033073;28;20048;-64
2023/01/31 00:10:38;;;;;;;57.88;37.88;;;4.60;99.90;;;;;;5033238;28;20018;-63
2023/01/31 00:13:04;;;;;;;41.95;29.20;;;4.60;99.90;;;;;;5033131;28;20017;-61
2023/01/31 00:15:30;;;;;;;46.15;29.73;;;4.50;99.90;;;;;;5033087;28;20036;-63
2023/01/31 00:17:55;;;;;;;38.65;28.45;;;4.70;99.90;;;;;;5032992;28;20021;-61
2023/01/31 00:20:21;;;;;;;40.45;29.00;;;4.80;99.90;;;;;;5033083;28;20026;-61
2023/01/31 00:22:47;;;;;;;33.67;24.70;;;4.80;99.90;;;;;;5032909;28;20115;-62
2023/01/31 00:25:13;;;;;;;29.83;21.90;;;4.80;99.90;;;;;;5033075;28;20113;-63
2023/01/31 00:27:38;;;;;;;37.55;27.10;;;4.90;99.90;;;;;;5032942;28;20030;-61
2023/01/31 00:30:05;;;;;;;28.67;20.77;;;5.00;99.90;;;;;;5032803;28;20026;-67
2023/01/31 00:32:30;;;;;;;28.23;19.98;;;5.00;99.90;;;;;;5032885;28;20021;-63
2023/01/31 00:34:56;;;;;;;27.27;20.80;;;5.00;99.90;;;;;;5033041;28;20033;-63
2023/01/31 00:37:22;;;;;;;26.05;19.63;;;5.00;99.90;;;;;;5034935;28;20386;-63
2023/01/31 00:39:47;;;;;;;29.05;20.88;;;5.10;99.90;;;;;;5036975;28;20025;-63
2023/01/31 00:42:13;;;;;;;38.65;26.45;;;5.20;99.90;;;;;;5036753;28;20022;-65
2023/01/31 00:44:39;;;;;;;28.17;20.65;;;5.20;99.90;;;;;;5036391;28;20052;-64
2023/01/31 00:47:04;;;;;;;26.17;19.58;;;5.10;99.90;;;;;;5036850;28;20076;-63
2023/01/31 00:49:30;;;;;;;26.85;19.65;;;5.10;99.90;;;;;;5036841;28;20109;-61
2023/01/31 00:51:56;;;;;;;23.50;17.83;;;5.10;99.90;;;;;;5036431;28;20025;-66
2023/01/31 00:54:21;;;;;;;25.88;18.92;;;5.10;99.90;;;;;;5036273;28;20072;-64
2023/01/31 00:56:47;;;;;;;29.20;20.90;;;5.20;99.90;;;;;;5036461;28;20382;-60
2023/01/31 00:59:13;;;;;;;33.10;21.48;;;5.30;99.90;;;;;;5036221;28;20017;-63
2023/01/31 01:01:39;;;;;;;35.15;23.55;;;5.10;99.90;;;;;;5036623;28;20021;-62
2023/01/31 01:04:05;;;;;;;44.03;27.33;;;5.00;99.90;;;;;;5036601;28;20514;-66
2023/01/31 01:06:31;;;;;;;36.03;23.92;;;4.70;99.90;;;;;;5036548;28;20421;-63
2023/01/31 01:08:58;;;;;;;32.40;21.75;;;4.60;99.90;;;;;;5036211;28;20022;-62
2023/01/31 01:11:30;;;;;;;51.00;30.25;;;4.70;99.90;;;;;;5036189;28;20353;-62
2023/01/31 01:13:58;;;;;;;33.85;22.05;;;4.70;99.90;;;;;;5036068;28;20108;-61
2023/01/31 01:16:33;;;;;;;33.55;21.63;;;4.70;99.90;;;;;;5036394;28;20473;-62
2023/01/31 01:19:01;;;;;;;42.42;27.00;;;4.80;99.90;;;;;;5036127;28;20071;-63
2023/01/31 01:21:29;;;;;;;42.65;26.60;;;4.80;99.90;;;;;;5035950;28;20467;-64
2023/01/31 01:23:57;;;;;;;48.03;28.40;;;4.80;99.90;;;;;;5035775;28;20018;-65
2023/01/31 01:26:26;;;;;;;51.97;30.75;;;4.80;99.90;;;;;;5035801;28;20029;-61
2023/01/31 01:28:53;;;;;;;66.57;37.20;;;4.70;99.90;;;;;;5035843;28;20018;-63
2023/01/31 01:31:19;;;;;;;68.82;40.28;;;4.60;99.90;;;;;;5035684;28;20022;-63
2023/01/31 01:33:47;;;;;;;48.63;30.92;;;4.60;99.90;;;;;;5035751;28;20076;-61
2023/01/31 01:36:16;;;;;;;64.38;37.92;;;4.60;99.90;;;;;;5035965;28;20030;-61
2023/01/31 01:38:42;;;;;;;77.95;42.45;;;4.50;99.90;;;;;;5035575;28;20032;-64
2023/01/31 01:41:09;;;;;;;79.50;41.03;;;4.50;99.90;;;;;;5035717;28;20030;-63
2023/01/31 01:43:42;;;;;;;54.38;33.33;;;4.40;99.90;;;;;;5035638;28;20029;-62
2023/01/31 01:46:12;;;;;;;66.53;38.50;;;4.20;99.90;;;;;;5035413;28;20018;-67
2023/01/31 01:48:40;;;;;;;54.35;33.40;;;4.30;99.90;;;;;;5035154;28;20037;-65
2023/01/31 01:51:06;;;;;;;89.50;43.65;;;4.10;99.90;;;;;;5035532;28;20528;-66
2023/01/31 01:53:34;;;;;;;69.68;38.45;;;4.10;99.90;;;;;;5035552;28;20025;-64
2023/01/31 01:56:06;;;;;;;76.95;39.78;;;3.90;99.90;;;;;;5035240;28;20029;-65
2023/01/31 01:58:38;;;;;;;62.85;35.47;;;3.90;99.90;;;;;;5035230;28;20030;-63
2023/01/31 02:01:06;;;;;;;58.95;32.50;;;3.90;99.90;;;;;;5035222;28;20125;-63
2023/01/31 02:03:32;;;;;;;65.53;35.05;;;4.00;99.90;;;;;;5035462;28;20029;-64
2023/01/31 02:06:03;;;;;;;75.93;39.20;;;4.00;99.90;;;;;;5035040;28;20033;-65
2023/01/31 02:08:32;;;;;;;66.72;37.92;;;3.90;99.90;;;;;;5035386;28;20033;-62
2023/01/31 02:11:08;;;;;;;58.05;32.58;;;3.90;99.90;;;;;;5034906;28;20093;-65
2023/01/31 02:13:35;;;;;;;50.03;29.90;;;3.90;99.90;;;;;;5034973;28;20143;-60
2023/01/31 02:16:01;;;;;;;56.45;31.52;;;4.00;99.90;;;;;;5035040;28;20029;-60
2023/01/31 02:18:26;;;;;;;54.03;31.02;;;4.10;99.90;;;;;;5035171;28;20021;-66
2023/01/31 02:21:10;;;;;;;44.78;26.20;;;4.10;99.90;;;;;;5034746;28;20022;-61
2023/01/31 02:23:59;;;;;;;40.72;23.88;;;4.20;99.90;;;;;;5034876;28;20025;-63
2023/01/31 02:26:40;;;;;;;44.53;26.10;;;4.40;99.90;;;;;;5033523;28;20379;-66
2023/01/31 02:29:14;;;;;;;39.83;23.67;;;4.50;99.90;;;;;;5034635;28;20025;-62
2023/01/31 02:31:58;;;;;;;63.25;34.50;;;4.50;99.90;;;;;;5034730;28;20017;-65
2023/01/31 02:34:40;;;;;;;;;;;4.50;99.90;;;;;;5034950;28;20018;-66
2023/01/31 02:37:27;;;;;;;50.95;27.85;;;4.40;99.90;;;;;;5034564;28;19948;-64
2023/01/31 02:39:52;;;;;;;46.58;26.98;;;4.40;99.90;;;;;;5034348;28;20017;-61
2023/01/31 02:42:41;;;;;;;40.05;25.77;;;4.40;99.90;;;;;;5034497;28;20383;-64
2023/01/31 02:45:21;;;;;;;51.97;29.92;;;4.50;99.90;;;;;;5030683;28;20120;-63
2023/01/31 02:47:59;;;;;;;63.90;34.58;;;4.60;99.90;;;;;;5034401;28;20029;-61
2023/01/31 02:50:51;;;;;;;57.03;33.42;;;4.50;99.90;;;;;;5034166;28;20024;-66
2023/01/31 02:53:32;;;;;;;47.85;28.40;;;4.40;99.90;;;;;;5029827;28;20491;-63
2023/01/31 02:56:14;;;;;;;66.55;34.47;;;4.40;99.90;;;;;;5034141;28;20052;-64
2023/01/31 02:58:44;;;;;;;66.10;35.30;;;4.40;99.90;;;;;;5033925;28;20106;-63
2023/01/31 03:01:14;;;;;;;50.08;29.20;;;4.30;99.90;;;;;;5033605;28;20021;-64
2023/01/31 03:03:40;;;;;;;44.05;26.95;;;4.20;99.90;;;;;;5034311;28;20025;-62
2023/01/31 03:06:22;;;;;;;41.17;25.00;;;4.30;99.90;;;;;;5034406;28;20076;-64
2023/01/31 03:09:09;;;;;;;37.00;23.23;;;4.40;99.90;;;;;;5033761;28;20025;-65
2023/01/31 03:12:00;;;;;;;44.88;25.65;;;4.50;99.90;;;;;;5033592;28;20044;-63
2023/01/31 03:14:41;;;;;;;47.17;28.27;;;4.60;99.90;;;;;;5033729;28;20029;-67
2023/01/31 03:17:33;;;;;;;60.75;33.42;;;4.70;99.90;;;;;;5033884;28;20017;-60
2023/01/31 03:20:05;;;;;;;49.50;27.98;;;4.60;99.90;;;;;;5033793;28;20029;-63
2023/01/31 03:22:39;;;;;;;39.97;24.77;;;4.40;99.90;;;;;;5033586;28;20022;-64
2023/01/31 03:25:08;;;;;;;36.78;22.27;;;4.50;99.90;;;;;;5033542;28;20029;-62
2023/01/31 03:27:35;;;;;;;53.05;29.33;;;4.50;99.90;;;;;;5033759;28;20044;-61
2023/01/31 03:30:17;;;;;;;39.33;23.85;;;4.60;99.90;;;;;;5033586;28;20033;-66
2023/01/31 03:32:56;;;;;;;38.00;23.00;;;4.60;99.90;;;;;;5033725;28;20021;-62
2023/01/31 03:35:27;;;;;;;45.83;27.23;;;4.70;99.90;;;;;;5033466;28;20479;-65
2023/01/31 03:38:03;;;;;;;48.85;28.30;;;4.70;99.90;;;;;;5033361;28;20159;-62
2023/01/31 03:40:45;;;;;;;36.22;21.80;;;4.70;99.90;;;;;;5033765;28;20375;-65
2023/01/31 03:43:24;;;;;;;33.90;21.30;;;4.60;99.90;;;;;;5033577;28;20104;-64
2023/01/31 03:45:56;;;;;;;45.20;25.65;;;4.60;99.90;;;;;;5033587;28;20036;-61
2023/01/31 03:48:27;;;;;;;45.08;25.92;;;4.70;99.90;;;;;;5033664;28;20391;-63
2023/01/31 03:50:58;;;;;;;46.92;26.67;;;4.60;99.90;;;;;;5033210;28;20079;-61
2023/01/31 03:53:42;;;;;;;48.85;28.00;;;4.60;99.90;;;;;;5033168;28;20025;-67
2023/01/31 03:56:25;;;;;;;;;;;4.50;99.90;;;;;;5033802;28;20481;-63
2023/01/31 03:58:57;;;;;;;54.67;29.98;;;4.40;99.90;;;;;;5033373;28;19991;-63
2023/01/31 04:01:26;;;;;;;43.97;26.50;;;4.20;99.90;;;;;;5033347;28;20026;-65
2023/01/31 04:04:01;;;;;;;37.03;24.20;;;4.20;99.90;;;;;;5033203;28;20021;-64
2023/01/31 04:06:27;;;;;;;34.72;23.13;;;4.30;99.90;;;;;;5032953;28;20072;-62
2023/01/31 04:08:53;;;;;;;47.00;26.58;;;4.50;99.90;;;;;;5033144;28;20032;-64
2023/01/31 04:11:25;;;;;;;46.22;26.13;;;4.50;99.90;;;;;;5035050;28;20017;-61
2023/01/31 04:13:51;;;;;;;43.22;25.00;;;4.50;99.90;;;;;;5037337;28;20099;-61
2023/01/31 04:16:16;;;;;;;34.92;21.50;;;4.50;99.90;;;;;;5037442;28;20049;-63
2023/01/31 04:18:42;;;;;;;35.60;21.65;;;4.50;99.90;;;;;;5037060;28;20029;-63
2023/01/31 04:21:08;;;;;;;30.25;20.17;;;4.60;99.90;;;;;;5037288;28;20108;-63
2023/01/31 04:23:35;;;;;;;41.78;24.75;;;4.60;99.90;;;;;;5037172;28;20026;-61
2023/01/31 04:26:00;;;;;;;47.47;29.60;;;4.70;99.90;;;;;;5036907;28;20076;-64
2023/01/31 04:28:26;;;;;;;41.55;25.67;;;4.80;99.90;;;;;;5036981;28;20021;-65
2023/01/31 04:30:56;;;;;;;45.20;26.88;;;4.80;99.90;;;;;;5037206;28;20045;-64
2023/01/31 04:33:22;;;;;;;40.35;27.30;;;4.80;99.90;;;;;;5036820;28;20472;-64
2023/01/31 04:35:50;;;;;;;42.97;27.90;;;4.80;99.90;;;;;;5036897;28;20083;-61
2023/01/31 04:38:15;;;;;;;43.45;27.20;;;4.70;99.90;;;;;;5036803;28;20030;-65
2023/01/31 04:40:41;;;;;;;45.60;28.77;;;4.70;99.90;;;;;;5036627;28;20387;-65
2023/01/31 04:43:07;;;;;;;34.08;23.02;;;4.70;99.90;;;;;;5036576;28;20026;-65
2023/01/31 04:45:33;;;;;;;35.50;22.73;;;4.70;99.90;;;;;;5036881;28;20147;-62
2023/01/31 04:47:58;;;;;;;31.20;21.50;;;4.70;99.90;;;;;;5036497;28;20065;-63
2023/01/31 04:50:24;;;;;;;55.67;34.72;;;4.70;99.90;;;;;;5036391;28;20057;-64
2023/01/31 04:52:50;;;;;;;57.83;34.05;;;4.70;99.90;;;;;;5036733;28;20028;-61
2023/01/31 04:55:16;;;;;;;46.85;30.15;;;4.70;99.90;;;;;;5036338;28;20060;-64
2023/01/31 04:57:42;;;;;;;58.03;35.45;;;4.60;99.90;;;;;;5036343;28;20026;-65
2023/01/31 05:00:09;;;;;;;52.97;33.05;;;4.60;99.90;;;;;;5036325;28;20022;-62
2023/01/31 05:02:35;;;;;;;58.33;36.05;;;4.60;99.90;;;;;;5036375;28;20024;-65
2023/01/31 05:05:02;;;;;;;48.90;32.88;;;4.60;99.90;;;;;;5035914;28;20112;-66
2023/01/31 05:07:27;;;;;;;51.40;33.40;;;4.60;99.90;;;;;;5036204;28;20030;-66
2023/01/31 05:09:53;;;;;;;60.42;36.25;;;4.60;99.90;;;;;;5036449;28;20036;-63
2023/01/31 05:12:19;;;;;;;61.63;37.85;;;4.60;99.90;;;;;;5036066;28;20083;-65
2023/01/31 05:14:45;;;;;;;59.05;38.42;;;4.60;99.90;;;;;;5036264;28;20026;-63
2023/01/31 05:17:10;;;;;;;71.00;42.25;;;4.60;99.90;;;;;;5036612;28;20460;-60
2023/01/31 05:19:36;;;;;;;87.90;50.28;;;4.60;99.90;;;;;;5035806;28;20025;-63
2023/01/31 05:22:02;;;;;;;80.00;45.60;;;4.50;99.90;;;;;;5035548;28;20021;-64
2023/01/31 05:24:32;;;;;;;64.15;39.50;;;4.40;99.90;;;;;;5035651;28;20140;-66
2023/01/31 05:27:02;;;;;;;86.55;47.78;;;4.30;99.90;;;;;;5035765;28;20029;-64
2023/01/31 05:29:30;;;;;;;57.15;35.65;;;4.30;99.90;;;;;;5035819;28;20384;-61
2023/01/31 05:31:58;;;;;;;55.70;34.40;;;4.20;99.90;;;;;;5035791;28;20018;-64
2023/01/31 05:34:24;;;;;;;54.30;34.25;;;4.30;99.90;;;;;;5035516;28;20480;-65
2023/01/31 05:36:53;;;;;;;52.88;33.05;;;4.20;99.90;;;;;;5036005;28;20028;-59
2023/01/31 05:39:19;;;;;;;52.90;34.80;;;4.20;99.90;;;;;;5035675;28;20026;-63
2023/01/31 05:41:44;;;;;;;61.90;39.72;;;4.20;99.90;;;;;;5035532;28;20468;-62
2023/01/31 05:44:10;;;;;;;72.38;41.40;;;4.20;99.90;;;;;;5035660;28;20022;-61
2023/01/31 05:46:37;;;;;;;64.07;39.67;;;4.20;99.90;;;;;;5035614;28;20056;-63
2023/01/31 05:49:03;;;;;;;70.35;39.85;;;4.30;99.90;;;;;;5035239;28;20357;-65
2023/01/31 05:51:29;;;;;;;108.88;51.05;;;4.30;99.90;;;;;;5035384;28;20519;-63
2023/01/31 05:53:55;;;;;;;67.57;37.28;;;4.30;99.90;;;;;;5035137;28;20054;-64
2023/01/31 05:56:21;;;;;;;55.20;33.20;;;4.30;99.90;;;;;;5034886;28;20029;-60
2023/01/31 05:58:49;;;;;;;66.40;35.67;;;4.40;99.90;;;;;;5034450;28;20379;-63
2023/01/31 06:01:22;;;;;;;58.28;34.13;;;4.40;99.90;;;;;;5033879;28;20021;-61
2023/01/31 06:03:48;;;;;;;60.53;33.95;;;4.30;99.90;;;;;;5035018;28;20028;-62
2023/01/31 06:06:14;;;;;;;53.35;30.73;;;4.30;99.90;;;;;;5034661;28;20025;-64
2023/01/31 06:08:40;;;;;;;48.85;27.95;;;4.30;99.90;;;;;;5035140;28;20064;-66
2023/01/31 06:11:10;;;;;;;51.72;28.45;;;4.40;99.90;;;;;;5035125;28;20033;-65
2023/01/31 06:13:36;;;;;;;44.03;26.08;;;4.40;99.90;;;;;;5033935;28;20533;-64
2023/01/31 06:16:02;;;;;;;48.47;26.77;;;4.40;99.90;;;;;;5034332;28;20029;-64
2023/01/31 06:18:28;;;;;;;50.63;28.48;;;4.50;99.90;;;;;;5034867;28;20121;-62
2023/01/31 06:20:53;;;;;;;70.90;36.83;;;4.50;99.90;;;;;;5034667;28;20018;-65
2023/01/31 06:23:19;;;;;;;59.35;31.17;;;4.40;99.90;;;;;;5034798;28;20471;-60
2023/01/31 06:25:50;;;;;;;58.35;29.27;;;4.30;99.90;;;;;;5034599;28;20116;-61
2023/01/31 06:28:16;;;;;;;63.67;34.20;;;4.30;99.90;;;;;;5034567;28;20038;-64
2023/01/31 06:30:42;;;;;;;44.95;25.70;;;4.40;99.90;;;;;;5034565;28;20029;-62
2023/01/31 06:33:08;;;;;;;53.25;30.48;;;4.40;99.90;;;;;;5034602;28;20403;-65
2023/01/31 06:35:34;;;;;;;43.13;24.83;;;4.50;99.90;;;;;;5032694;28;20368;-64
2023/01/31 06:38:00;;;;;;;50.53;29.77;;;4.50;99.90;;;;;;5032625;28;20557;-64
2023/01/31 06:40:26;;;;;;;57.45;33.33;;;4.50;99.90;;;;;;5031850;28;20060;-64
2023/01/31 06:42:51;;;;;;;139.60;70.85;;;4.60;99.90;;;;;;5031322;28;20036;-65
2023/01/31 06:45:17;;;;;;;109.07;58.45;;;4.60;99.90;;;;;;5029944;28;20104;-66
2023/01/31 06:47:46;;;;;;;110.97;55.22;;;4.40;99.90;;;;;;5030439;28;20040;-61
2023/01/31 06:50:12;;;;;;;183.10;94.60;;;4.40;99.90;;;;;;5031270;28;20403;-65
2023/01/31 06:52:41;;;;;;;118.88;63.70;;;4.40;99.90;;;;;;5033412;28;20025;-65
2023/01/31 06:55:07;;;;;;;95.55;55.30;;;4.20;99.90;;;;;;5033419;28;20041;-65
2023/01/31 06:57:33;;;;;;;100.63;53.63;;;4.10;99.90;;;;;;5033751;28;20021;-62
2023/01/31 06:59:59;;;;;;;91.55;50.47;;;4.10;99.90;;;;;;5034054;28;20493;-63
2023/01/31 07:02:25;;;;;;;81.72;45.00;;;4.20;99.90;;;;;;5033993;28;20109;-62
2023/01/31 07:04:51;;;;;;;84.32;46.22;;;4.30;99.90;;;;;;5033830;28;20025;-63
2023/01/31 07:07:17;;;;;;;78.47;44.83;;;4.40;99.90;;;;;;5030708;28;20033;-65
2023/01/31 07:09:43;;;;;;;78.32;47.22;;;4.40;99.90;;;;;;5028221;28;20527;-62
2023/01/31 07:12:09;;;;;;;73.78;42.70;;;4.40;99.90;;;;;;5026463;28;20029;-65
2023/01/31 07:14:35;;;;;;;71.70;41.25;;;4.40;99.90;;;;;;5029506;28;20083;-62
2023/01/31 07:17:01;;;;;;;67.03;40.33;;;4.50;99.90;;;;;;5033206;28;20403;-62
2023/01/31 07:19:27;;;;;;;62.03;37.10;;;4.60;99.90;;;;;;5032654;28;20048;-62
2023/01/31 07:21:52;;;;;;;56.17;35.15;;;4.70;99.90;;;;;;5032534;28;20026;-59
2023/01/31 07:24:18;;;;;;;64.50;36.17;;;4.70;99.90;;;;;;5033570;28;20057;-60
2023/01/31 07:26:44;;;;;;;54.33;33.15;;;4.80;99.90;;;;;;5031366;28;20029;-64
2023/01/31 07:29:10;;;;;;;60.95;35.38;;;4.90;99.90;;;;;;5032271;28;20482;-62
2023/01/31 07:31:38;;;;;;;58.25;34.47;;;4.90;99.90;;;;;;5031471;28;20029;-61
2023/01/31 07:34:04;;;;;;;74.90;41.05;;;5.00;99.90;;;;;;5032074;28;20060;-62
2023/01/31 07:36:30;;;;;;;75.15;40.53;;;5.00;99.90;;;;;;5049301;28;20447;-60
2023/01/31 07:38:58;;;;;;;80.18;45.47;;;5.00;99.90;;;;;;5034972;28;20160;-62
2023/01/31 07:41:24;;;;;;;84.72;45.55;;;5.10;99.90;;;;;;5033421;28;20022;-60
2023/01/31 07:43:50;;;;;;;87.95;46.63;;;5.00;99.90;;;;;;5032327;28;20495;-62
2023/01/31 07:46:16;;;;;;;77.95;43.70;;;4.90;99.90;;;;;;5030422;28;20029;-62
2023/01/31 07:48:42;;;;;;;89.47;49.33;;;4.80;99.90;;;;;;5030759;28;20037;-60
2023/01/31 07:51:22;;;;;;;95.38;51.13;;;4.90;99.90;;;;;;5031270;28;20036;-63
2023/01/31 07:53:47;;;;;;;88.13;47.67;;;5.00;99.90;;;;;;5031240;28;20053;-61
2023/01/31 07:56:19;;;;;;;81.88;45.53;;;5.00;99.90;;;;;;5030567;28;20068;-63
2023/01/31 07:58:46;;;;;;;74.90;41.88;;;5.00;99.90;;;;;;5029494;28;20517;-66
2023/01/31 08:04:11;;;;;;;104.95;52.22;;;5.20;99.90;;;;;;5030022;28;20175;-65
2023/01/31 08:06:38;;;;;;;107.18;54.15;;;5.30;99.90;;;;;;5027162;28;20111;-64
2023/01/31 08:09:04;;;;;;;97.15;51.95;;;5.40;99.90;;;;;;5027453;28;20313;-67
2023/01/31 08:11:30;;;;;;;126.00;60.42;;;5.40;99.90;;;;;;5027467;28;20726;-65
2023/01/31 08:13:56;;;;;;;120.60;62.92;;;5.40;99.90;;;;;;5026149;28;20159;-63
2023/01/31 08:16:22;;;;;;;111.65;58.45;;;5.30;99.90;;;;;;5027594;28;20655;-64
2023/01/31 08:18:49;;;;;;;130.93;65.45;;;5.20;99.90;;;;;;5029152;28;20026;-68
2023/01/31 08:21:15;;;;;;;274.85;102.65;;;5.20;99.90;;;;;;5029590;28;20044;-65
2023/01/31 08:23:42;;;;;;;122.70;66.63;;;5.10;99.90;;;;;;5029650;28;20494;-63
2023/01/31 08:26:13;;;;;;;137.60;69.45;;;5.00;99.90;;;;;;5029189;28;20034;-64
2023/01/31 08:28:39;;;;;;;112.88;61.72;;;5.00;99.90;;;;;;5030611;28;20051;-62
2023/01/31 08:31:06;;;;;;;150.35;73.70;;;5.10;99.90;;;;;;5032355;28;20306;-65
2023/01/31 08:33:31;;;;;;;118.88;64.90;;;5.20;99.90;;;;;;5031493;28;20039;-61
2023/01/31 08:36:10;;;;;;;150.00;72.18;;;5.20;99.90;;;;;;5031481;28;20066;-63
2023/01/31 08:38:37;;;;;;;148.13;71.38;;;5.20;99.90;;;;;;5029607;28;20048;-62
2023/01/31 08:41:02;;;;;;;119.03;60.70;;;5.00;99.90;;;;;;5030018;28;20017;-61
2023/01/31 08:43:31;;;;;;;120.57;60.40;;;4.80;99.90;;;;;;5030313;28;20029;-65
2023/01/31 08:45:58;;;;;;;101.30;52.38;;;4.90;99.90;;;;;;5028489;28;20037;-62
2023/01/31 08:48:25;;;;;;;148.50;62.78;;;4.90;99.90;;;;;;5028143;28;20025;-64
2023/01/31 08:50:51;;;;;;;115.45;56.53;;;5.10;99.90;;;;;;5025833;28;20040;-61
2023/01/31 08:53:31;;;;;;;155.85;76.53;;;4.90;99.90;;;;;;5026559;28;20105;-64
2023/01/31 08:56:03;;;;;;;130.15;62.45;;;5.00;99.90;;;;;;5024613;28;20128;-65
2023/01/31 08:58:31;;;;;;;128.57;61.20;;;4.90;99.90;;;;;;5027118;28;20025;-67
2023/01/31 09:01:05;;;;;;;106.00;55.15;;;4.80;99.90;;;;;;5031253;28;20651;-64
2023/01/31 09:03:31;;;;;;;103.88;53.30;;;4.70;99.90;;;;;;5029317;28;20030;-66
2023/01/31 09:06:01;;;;;;;108.07;54.88;;;4.90;99.90;;;;;;5027856;28;20026;-65
2023/01/31 09:08:28;;;;;;;119.90;60.03;;;5.10;99.90;;;;;;5027067;28;20021;-63
2023/01/31 09:10:57;;;;;;;142.82;74.07;;;5.20;99.90;;;;;;5028124;28;20514;-66
2023/01/31 09:13:24;;;;;;;121.30;65.47;;;5.30;99.90;;;;;;5029326;28;20030;-67
2023/01/31 09:16:05;;;;;;;113.63;65.07;;;5.30;99.90;;;;;;5026596;28;20480;-65
2023/01/31 09:18:36;;;;;;;149.02;76.00;;;5.50;99.90;;;;;;5029408;28;20029;-66
2023/01/31 09:21:10;;;;;;;132.20;71.47;;;5.50;99.90;;;;;;5029499;28;20395;-66
2023/01/31 09:23:37;;;;;;;134.60;74.07;;;5.40;99.90;;;;;;5033362;28;20029;-61
2023/01/31 09:26:03;;;;;;;116.60;65.00;;;5.50;99.90;;;;;;5032078;28;20033;-70
2023/01/31 09:28:29;;;;;;;118.30;65.38;;;5.50;99.90;;;;;;5033186;28;20025;-65
2023/01/31 09:31:00;;;;;;;120.07;65.18;;;5.70;99.90;;;;;;5033070;28;20028;-70
2023/01/31 09:33:26;;;;;;;118.55;64.63;;;5.80;99.90;;;;;;5031848;28;20045;-62
2023/01/31 09:35:57;;;;;;;110.10;59.38;;;5.90;99.90;;;;;;5033194;28;20021;-65
2023/01/31 09:38:25;;;;;;;98.20;56.38;;;5.90;99.90;;;;;;5030670;28;20026;-62
2023/01/31 09:40:51;;;;;;;94.55;57.40;;;5.70;99.90;;;;;;5024878;28;20029;-61
2023/01/31 09:43:21;;;;;;;89.43;50.13;;;5.80;99.90;;;;;;5028209;28;20075;-64
2023/01/31 09:45:49;;;;;;;85.72;48.03;;;5.90;99.90;;;;;;5021135;28;20295;-65
2023/01/31 09:48:21;;;;;;;104.63;53.78;;;5.90;99.90;;;;;;5020188;28;20048;-65
2023/01/31 09:50:55;;;;;;;86.00;46.63;;;5.90;99.90;;;;;;5048562;28;20034;-63
2023/01/31 09:53:31;;;;;;;88.55;51.20;;;5.80;99.90;;;;;;5021880;28;20022;-66
2023/01/31 09:56:42;;;;;;;;;;;;;;;;;;;;;
2023/01/31 09:59:34;;;;;;;119.55;60.15;;;5.90;99.90;;;;;;5028029;28;20418;-63
2023/01/31 10:02:17;;;;;;;110.78;60.13;;;5.90;99.90;;;;;;5025986;28;20044;-66
2023/01/31 10:05:12;;;;;;;109.78;60.72;;;5.80;99.90;;;;;;5029365;28;20080;-69
2023/01/31 10:07:55;;;;;;;113.05;60.80;;;5.80;99.90;;;;;;5025097;28;20071;-67
2023/01/31 10:10:42;;;;;;;110.07;61.35;;;5.90;99.90;;;;;;5018918;28;20547;-67
2023/01/31 10:13:19;;;;;;;109.93;58.90;;;6.10;99.90;;;;;;5025463;28;20452;-70
2023/01/31 10:16:15;;;;;;;99.53;53.92;;;6.20;99.90;;;;;;5029521;28;20402;-68
2023/01/31 10:18:45;;;;;;;86.63;48.53;;;6.30;99.90;;;;;;5045629;28;20483;-64
2023/01/31 10:21:48;;;;;;;73.05;42.17;;;6.40;99.90;;;;;;5031517;28;20025;-63
2023/01/31 10:24:43;;;;;;;61.47;35.85;;;6.50;99.90;;;;;;5030958;28;20057;-63
2023/01/31 10:27:18;;;;;;;45.85;29.83;;;6.50;99.90;;;;;;5028541;28;20048;-65
2023/01/31 10:29:52;;;;;;;43.47;28.38;;;6.50;99.90;;;;;;5021800;28;20029;-65
2023/01/31 10:32:37;;;;;;;38.20;26.55;;;6.60;99.90;;;;;;5032411;28;20029;-63
2023/01/31 10:35:39;;;;;;;35.30;24.08;;;6.60;99.90;;;;;;5030182;28;20041;-66
2023/01/31 10:38:18;;;;;;;32.42;20.92;;;6.60;99.90;;;;;;5015243;28;20559;-63
2023/01/31 10:40:57;;;;;;;25.85;17.80;;;6.60;99.90;;;;;;5019704;28;20034;-63
2023/01/31 10:44:02;;;;;;;23.27;15.32;;;6.70;99.90;;;;;;5014334;28;20021;-64
2023/01/31 10:46:28;;;;;;;25.55;16.80;;;6.50;99.90;;;;;;5027688;28;20543;-65
2023/01/31 10:48:54;;;;;;;24.45;16.50;;;6.50;99.90;;;;;;5027391;28;20113;-62
2023/01/31 10:51:58;;;;;;;23.50;16.05;;;6.50;99.90;;;;;;5026024;28;20039;-63
2023/01/31 10:54:33;;;;;;;24.50;17.27;;;6.80;99.90;;;;;;4994279;28;20050;-66
2023/01/31 10:56:59;;;;;;;26.75;18.80;;;6.90;99.90;;;;;;5014017;28;20317;-68
2023/01/31 10:59:39;;;;;;;23.42;16.70;;;7.10;99.90;;;;;;5028513;28;20025;-68
2023/01/31 11:02:22;;;;;;;23.45;16.20;;;7.10;99.90;;;;;;5029619;28;20108;-64
2023/01/31 11:04:51;;;;;;;23.80;16.98;;;7.00;99.90;;;;;;5030373;28;20257;-65
2023/01/31 11:10:50;;;;;;;22.85;16.80;;;6.90;99.90;;;;;;5031800;28;20071;-64
2023/01/31 11:13:19;;;;;;;23.40;16.75;;;6.90;99.90;;;;;;5031180;28;20123;-65
2023/01/31 11:15:47;;;;;;;20.42;15.00;;;7.00;99.90;;;;;;5053645;28;20498;-69
2023/01/31 11:18:41;;;;;;;19.83;14.18;;;7.00;99.90;;;;;;5032328;28;20025;-65
2023/01/31 11:21:06;;;;;;;18.58;14.02;;;7.00;99.90;;;;;;5030911;28;20029;-64
2023/01/31 11:23:34;;;;;;;20.23;15.45;;;6.90;99.90;;;;;;5032029;28;20063;-70
2023/01/31 11:26:01;;;;;;;19.35;14.13;;;6.90;99.90;;;;;;5028091;28;20030;-68
2023/01/31 11:28:39;;;;;;;19.27;13.93;;;6.80;99.90;;;;;;5030671;28;20025;-67
2023/01/31 11:31:16;;;;;;;17.70;13.45;;;6.90;99.90;;;;;;5030407;28;20037;-67
2023/01/31 11:34:23;;;;;;;18.48;13.90;;;6.80;99.90;;;;;;5031040;28;20029;-70
2023/01/31 11:36:52;;;;;;;16.38;12.75;;;6.80;99.90;;;;;;5031179;28;20040;-68
2023/01/31 11:39:40;;;;;;;19.23;13.55;;;6.80;99.90;;;;;;5030671;28;20260;-69
2023/01/31 11:42:16;;;;;;;18.48;14.07;;;6.80;99.90;;;;;;5031485;28;20352;-64
2023/01/31 11:45:18;;;;;;;21.25;15.80;;;6.90;99.90;;;;;;5032350;28;20026;-64
2023/01/31 11:48:11;;;;;;;17.85;13.32;;;6.80;99.90;;;;;;5017135;28;20056;-68
2023/01/31 11:50:51;;;;;;;18.17;14.60;;;6.80;99.90;;;;;;5038812;28;20024;-69
2023/01/31 11:53:41;;;;;;;19.92;14.38;;;6.80;99.90;;;;;;5043772;28;20022;-66
2023/01/31 11:56:14;;;;;;;18.13;12.93;;;6.90;99.90;;;;;;5020123;28;20518;-66
2023/01/31 11:58:42;;;;;;;16.38;13.40;;;6.90;99.90;;;;;;5031668;28;20661;-67
2023/01/31 12:01:17;;;;;;;21.40;15.02;;;7.00;99.90;;;;;;5031252;28;20107;-64
2023/01/31 12:04:28;;;;;;;23.23;16.42;;;6.90;99.90;;;;;;5029076;28;20031;-66
2023/01/31 12:07:29;;;;;;;15.93;10.98;;;6.70;99.90;;;;;;5025670;28;20037;-68
2023/01/31 12:10:49;;;;;;;10.07;8.20;;;6.40;99.90;;;;;;5028205;28;20043;-64
2023/01/31 12:13:21;;;;;;;10.10;6.80;;;6.10;99.90;;;;;;5025712;28;20037;-65
2023/01/31 12:16:04;;;;;;;6.90;4.85;;;6.00;99.90;;;;;;5030676;28;20076;-70
2023/01/31 12:18:42;;;;;;;7.40;4.40;;;5.80;99.90;;;;;;5020579;28;20387;-64
2023/01/31 12:21:18;;;;;;;6.88;4.95;;;5.80;99.90;;;;;;5026935;28;20028;-60
2023/01/31 12:23:47;;;;;;;6.93;5.13;;;5.90;99.90;;;;;;5024766;28;20033;-61
2023/01/31 12:26:33;;;;;;;6.88;5.80;;;6.00;99.90;;;;;;5025193;28;20044;-63
2023/01/31 12:29:08;;;;;;;8.73;7.10;;;6.10;99.90;;;;;;5027402;28;20727;-66
2023/01/31 12:31:47;;;;;;;6.25;5.20;;;6.20;99.90;;;;;;5020160;28;20052;-63
2023/01/31 12:34:42;;;;;;;4.88;4.30;;;6.30;99.90;;;;;;5032052;28;20017;-62
2023/01/31 12:37:27;;;;;;;6.22;4.28;;;6.60;99.90;;;;;;5030097;28;20032;-60
2023/01/31 12:40:20;;;;;;;8.30;5.90;;;6.90;99.90;;;;;;5031476;28;20032;-64
2023/01/31 12:42:57;;;;;;;12.68;7.88;;;7.00;99.90;;;;;;5007549;28;20045;-66
2023/01/31 12:45:49;;;;;;;15.43;10.50;;;7.10;99.90;;;;;;5033665;28;20045;-64
2023/01/31 12:48:55;;;;;;;11.52;8.55;;;7.00;99.90;;;;;;5031590;28;20135;-59
2023/01/31 12:51:32;;;;;;;22.42;16.20;;;6.90;99.90;;;;;;4990631;28;20030;-65
2023/01/31 12:54:20;;;;;;;32.47;20.58;;;6.90;99.90;;;;;;5028119;28;20072;-66
2023/01/31 12:57:05;;;;;;;22.42;15.55;;;6.90;99.90;;;;;;5033753;28;20479;-66
2023/01/31 12:59:36;;;;;;;25.05;16.92;;;7.00;99.90;;;;;;5034326;28;20034;-65
2023/01/31 13:02:14;;;;;;;27.50;19.38;;;7.20;99.90;;;;;;5034623;28;20152;-66
2023/01/31 13:04:46;;;;;;;25.23;17.55;;;7.30;99.90;;;;;;5034469;28;20109;-62
2023/01/31 13:07:15;;;;;;;24.45;15.90;;;7.40;99.90;;;;;;5032402;28;20013;-65
2023/01/31 13:09:43;;;;;;;18.20;13.43;;;7.40;99.90;;;;;;5033015;28;20044;-63